Time;durP1;ratioP1;P1;durP2;ratioP2;P2;SDS_P1;SDS_P2;PMS_P1;PMS_P2;Temp;Humidity;BMP_temperature;BMP_pressure;BME280_temperature;BME280_humidity;BME280_pressure;Samples;Min_cycle;Max_cycle;Signal;HPM_P1;HPM_P2
2022/10/26 00:01:18;;;;;;;10.43;2.63;;;15.70;99.90;;;;;;5111373;28;20100;-48
2022/10/26 00:03:45;;;;;;;11.80;2.70;;;15.70;99.90;;;;;;5111360;28;20565;-49
2022/10/26 00:06:14;;;;;;;14.60;3.30;;;15.70;99.90;;;;;;5111260;28;20388;-50
2022/10/26 00:08:40;;;;;;;12.75;2.13;;;15.60;99.90;;;;;;5111046;28;20520;-52
2022/10/26 00:11:06;;;;;;;12.23;2.45;;;15.60;99.90;;;;;;5111094;28;20100;-55
2022/10/26 00:13:33;;;;;;;9.57;2.13;;;15.60;99.90;;;;;;5111213;28;20111;-49
2022/10/26 00:15:59;;;;;;;15.82;2.90;;;15.50;99.90;;;;;;5111190;28;20028;-52
2022/10/26 00:18:25;;;;;;;11.02;2.45;;;15.60;99.90;;;;;;5111131;28;20032;-50
2022/10/26 00:20:51;;;;;;;10.40;2.35;;;15.60;99.90;;;;;;5130095;27;20030;-51
2022/10/26 00:23:16;;;;;;;13.13;2.28;;;15.50;99.90;;;;;;5131531;28;20084;-54
2022/10/26 00:25:42;;;;;;;14.85;2.58;;;15.50;99.90;;;;;;5113254;28;20027;-49
2022/10/26 00:28:08;;;;;;;29.27;3.10;;;15.50;99.90;;;;;;5131541;27;20049;-49
2022/10/26 00:30:37;;;;;;;10.80;2.17;;;15.50;99.90;;;;;;5131714;28;20035;-51
2022/10/26 00:33:02;;;;;;;11.82;2.25;;;15.50;99.90;;;;;;5131822;28;20050;-52
2022/10/26 00:35:28;;;;;;;12.68;2.80;;;15.60;99.90;;;;;;5131734;28;20438;-49
2022/10/26 00:37:55;;;;;;;8.55;2.45;;;15.60;99.90;;;;;;5131415;27;20031;-50
2022/10/26 00:40:21;;;;;;;11.02;2.42;;;15.70;99.90;;;;;;5120280;28;20023;-52
2022/10/26 00:42:46;;;;;;;11.38;2.47;;;15.60;99.90;;;;;;5128624;28;20023;-50
2022/10/26 00:45:18;;;;;;;8.20;2.28;;;15.70;99.90;;;;;;5128193;28;20015;-49
2022/10/26 00:47:48;;;;;;;8.52;2.60;;;15.70;99.90;;;;;;5131244;27;20042;-49
2022/10/26 00:50:40;;;;;;;11.20;2.22;;;15.70;99.90;;;;;;5131281;27;20510;-51
2022/10/26 00:53:07;;;;;;;10.35;2.50;;;15.70;99.90;;;;;;5131412;27;20094;-49
2022/10/26 00:55:37;;;;;;;8.20;2.20;;;15.70;99.90;;;;;;5131546;27;20023;-50
2022/10/26 00:58:05;;;;;;;7.43;2.28;;;15.80;99.90;;;;;;5134738;27;20163;-50
2022/10/26 01:00:31;;;;;;;8.05;2.13;;;15.80;99.90;;;;;;5135058;27;20019;-54
2022/10/26 01:03:03;;;;;;;9.23;1.98;;;15.80;99.90;;;;;;5135158;27;20031;-54
2022/10/26 01:05:29;;;;;;;11.73;2.42;;;15.70;99.90;;;;;;5135395;27;20019;-53
2022/10/26 01:07:55;;;;;;;8.20;1.98;;;15.70;99.90;;;;;;5135033;27;20495;-53
2022/10/26 01:10:21;;;;;;;9.32;2.33;;;15.70;99.90;;;;;;5127546;27;20034;-52
2022/10/26 01:12:48;;;;;;;8.82;2.65;;;15.80;99.90;;;;;;5135188;27;20034;-51
2022/10/26 01:15:13;;;;;;;10.65;2.30;;;15.70;99.90;;;;;;5134738;27;20144;-54
2022/10/26 01:17:56;;;;;;;6.38;2.00;;;15.70;99.90;;;;;;5128793;27;20376;-50
2022/10/26 01:20:37;;;;;;;9.45;2.30;;;15.80;99.90;;;;;;5129455;27;20019;-52
2022/10/26 01:23:23;;;;;;;8.93;2.10;;;15.80;99.90;;;;;;5135282;27;20371;-49
2022/10/26 01:26:04;;;;;;;16.83;2.65;;;15.80;99.90;;;;;;5134691;27;20034;-50
2022/10/26 01:29:16;;;;;;;9.10;2.25;;;15.80;99.90;;;;;;5134637;27;20027;-53
2022/10/26 01:31:49;;;;;;;4.13;2.05;;;15.80;99.90;;;;;;5028547;28;20053;-53
2022/10/26 01:34:30;;;;;;;10.32;2.53;;;15.90;99.90;;;;;;5128250;27;20025;-51
2022/10/26 01:37:01;;;;;;;10.48;2.50;;;15.80;99.90;;;;;;5134839;27;20023;-54
2022/10/26 01:39:51;;;;;;;10.80;2.45;;;15.90;99.90;;;;;;5132054;27;20055;-50
2022/10/26 01:42:18;;;;;;;14.20;2.65;;;15.80;99.90;;;;;;5134581;27;20030;-52
2022/10/26 01:45:05;;;;;;;11.60;2.25;;;15.90;99.90;;;;;;5134136;27;20083;-52
2022/10/26 01:47:34;;;;;;;6.85;1.85;;;15.90;99.90;;;;;;5134176;27;20023;-50
2022/10/26 01:50:02;;;;;;;8.80;2.33;;;16.00;99.90;;;;;;5134506;27;20019;-50
2022/10/26 01:52:27;;;;;;;15.30;2.50;;;16.00;99.90;;;;;;5134333;27;20019;-52
2022/10/26 01:55:05;;;;;;;7.00;1.70;;;16.00;99.90;;;;;;5133974;27;20539;-57
2022/10/26 01:57:34;;;;;;;8.32;2.28;;;16.00;99.90;;;;;;5134230;27;20118;-49
2022/10/26 02:00:07;;;;;;;10.00;2.25;;;16.00;99.90;;;;;;5115511;27;20075;-48
2022/10/26 02:02:48;;;;;;;10.95;2.72;;;16.00;99.90;;;;;;5134298;27;20115;-52
2022/10/26 02:05:22;;;;;;;11.32;2.60;;;16.00;99.90;;;;;;5127856;27;20492;-49
2022/10/26 02:08:14;;;;;;;12.70;2.67;;;16.00;99.90;;;;;;5126300;27;20043;-52
2022/10/26 02:10:49;;;;;;;11.05;2.33;;;16.00;99.90;;;;;;5117537;27;20031;-52
2022/10/26 02:13:42;;;;;;;11.10;2.40;;;16.00;99.90;;;;;;5133517;27;20034;-52
2022/10/26 02:16:37;;;;;;;9.13;2.70;;;16.00;99.90;;;;;;5125048;27;20031;-55
2022/10/26 02:19:35;;;;;;;11.18;2.42;;;16.00;99.90;;;;;;5114851;27;20483;-52
2022/10/26 02:22:15;;;;;;;13.75;2.83;;;16.00;99.90;;;;;;5088024;27;20046;-54
2022/10/26 02:24:42;;;;;;;9.93;2.30;;;16.00;99.90;;;;;;5133793;27;20506;-54
2022/10/26 02:27:15;;;;;;;7.78;2.40;;;16.00;99.90;;;;;;5125203;27;20047;-54
2022/10/26 02:29:42;;;;;;;11.30;2.80;;;16.00;99.90;;;;;;5111190;28;20031;-56
2022/10/26 02:32:09;;;;;;;15.30;2.40;;;15.90;99.90;;;;;;5116324;27;20054;-54
2022/10/26 02:34:37;;;;;;;9.32;2.47;;;16.00;99.90;;;;;;5127388;27;20043;-53
2022/10/26 02:37:04;;;;;;;8.07;2.25;;;15.90;99.90;;;;;;5119769;27;20476;-54
2022/10/26 02:39:32;;;;;;;9.48;2.17;;;15.90;99.90;;;;;;5129442;27;20491;-54
2022/10/26 02:42:01;;;;;;;7.28;2.28;;;15.90;99.90;;;;;;5133477;27;20295;-54
2022/10/26 02:44:32;;;;;;;10.65;2.67;;;15.90;99.90;;;;;;5128689;27;20020;-53
2022/10/26 02:46:58;;;;;;;8.75;2.20;;;15.90;99.90;;;;;;5123459;27;20038;-52
2022/10/26 02:49:24;;;;;;;11.35;2.85;;;15.90;99.90;;;;;;5133053;27;20027;-51
2022/10/26 02:52:05;;;;;;;16.17;2.67;;;15.90;99.90;;;;;;5133294;27;20029;-52
2022/10/26 02:55:07;;;;;;;18.80;3.08;;;16.00;99.90;;;;;;5132948;27;20023;-52
2022/10/26 02:57:39;;;;;;;13.52;2.63;;;16.00;99.90;;;;;;5132833;27;20058;-50
2022/10/26 03:00:10;;;;;;;7.85;2.50;;;16.00;99.90;;;;;;5128822;27;20626;-54
2022/10/26 03:02:36;;;;;;;10.85;2.38;;;16.10;99.90;;;;;;5112656;28;20541;-53
2022/10/26 03:05:26;;;;;;;13.15;2.65;;;16.10;99.90;;;;;;5131494;27;20019;-51
2022/10/26 03:07:53;;;;;;;10.65;2.28;;;16.10;99.90;;;;;;5122251;27;20047;-56
2022/10/26 03:10:19;;;;;;;9.27;2.25;;;16.20;99.90;;;;;;5132904;27;20061;-52
2022/10/26 03:12:45;;;;;;;11.55;2.75;;;16.20;99.90;;;;;;5132639;27;20019;-52
2022/10/26 03:15:10;;;;;;;10.43;2.58;;;16.20;99.90;;;;;;5132302;27;20015;-51
2022/10/26 03:17:36;;;;;;;12.18;2.50;;;16.20;99.90;;;;;;5132726;27;20015;-50
2022/10/26 03:20:02;;;;;;;14.63;2.70;;;16.20;99.90;;;;;;5132038;27;20467;-52
2022/10/26 03:22:28;;;;;;;16.58;2.95;;;16.20;99.90;;;;;;5124483;27;20468;-51
2022/10/26 03:24:54;;;;;;;12.20;2.40;;;16.20;99.90;;;;;;5126958;27;20417;-52
2022/10/26 03:27:19;;;;;;;13.10;2.42;;;16.20;99.90;;;;;;5123058;27;20023;-55
2022/10/26 03:29:45;;;;;;;13.05;2.85;;;16.20;99.90;;;;;;5132274;27;20035;-55
2022/10/26 03:32:10;;;;;;;11.75;2.50;;;16.20;99.90;;;;;;5121837;27;20023;-59
2022/10/26 03:34:36;;;;;;;7.53;2.10;;;16.20;99.90;;;;;;5132287;27;20371;-53
2022/10/26 03:37:02;;;;;;;11.20;2.53;;;16.20;99.90;;;;;;5117194;27;20145;-52
2022/10/26 03:39:27;;;;;;;15.38;2.58;;;16.20;99.90;;;;;;5132431;27;20027;-55
2022/10/26 03:41:54;;;;;;;12.55;2.65;;;16.20;99.90;;;;;;5132381;27;20030;-56
2022/10/26 03:44:19;;;;;;;14.52;2.38;;;16.20;99.90;;;;;;5131675;27;20559;-55
2022/10/26 03:46:45;;;;;;;10.70;3.58;;;16.30;99.90;;;;;;5132214;27;20035;-54
2022/10/26 03:49:11;;;;;;;12.40;2.70;;;16.30;99.90;;;;;;5131836;27;20122;-56
2022/10/26 03:51:36;;;;;;;11.80;2.65;;;16.30;99.90;;;;;;5132113;27;20030;-57
2022/10/26 03:54:02;;;;;;;12.55;2.85;;;16.20;99.90;;;;;;5131797;27;20121;-54
2022/10/26 03:56:28;;;;;;;10.88;2.70;;;16.20;99.90;;;;;;5132042;27;20023;-55
2022/10/26 03:58:53;;;;;;;13.82;2.80;;;16.20;99.90;;;;;;5127342;27;20023;-56
2022/10/26 04:01:19;;;;;;;10.85;2.60;;;16.20;99.90;;;;;;5131675;27;20027;-55
2022/10/26 04:03:44;;;;;;;10.65;2.60;;;16.30;99.90;;;;;;5131867;27;20042;-53
2022/10/26 04:06:10;;;;;;;12.38;3.28;;;16.30;99.90;;;;;;5131727;27;20132;-54
2022/10/26 04:08:36;;;;;;;13.43;2.83;;;16.30;99.90;;;;;;5121194;27;20050;-54
2022/10/26 04:11:01;;;;;;;10.85;2.30;;;16.30;99.90;;;;;;5111278;28;20024;-54
2022/10/26 04:13:27;;;;;;;12.38;3.08;;;16.40;99.90;;;;;;5111229;28;20051;-55
2022/10/26 04:15:52;;;;;;;11.63;2.95;;;16.40;99.90;;;;;;5111263;28;20077;-53
2022/10/26 04:18:18;;;;;;;13.70;3.03;;;16.40;99.90;;;;;;5126766;28;20076;-54
2022/10/26 04:20:44;;;;;;;11.63;2.63;;;16.50;99.90;;;;;;5107439;28;20028;-54
2022/10/26 04:23:12;;;;;;;18.27;3.28;;;16.50;99.90;;;;;;5107945;28;20030;-55
2022/10/26 04:25:38;;;;;;;11.65;2.40;;;16.40;99.90;;;;;;5124095;28;20028;-54
2022/10/26 04:28:05;;;;;;;15.27;2.72;;;16.50;99.90;;;;;;5125947;28;20111;-53
2022/10/26 04:30:32;;;;;;;10.50;2.30;;;16.50;99.90;;;;;;5123499;27;20027;-52
2022/10/26 04:32:58;;;;;;;10.55;2.75;;;16.50;99.90;;;;;;5114932;28;20019;-53
2022/10/26 04:35:24;;;;;;;9.65;2.72;;;16.50;99.90;;;;;;5114945;28;20399;-51
2022/10/26 04:37:49;;;;;;;8.38;2.45;;;16.50;99.90;;;;;;5123053;27;20022;-55
2022/10/26 04:40:15;;;;;;;14.70;2.42;;;16.50;99.90;;;;;;5121433;27;20381;-52
2022/10/26 04:42:44;;;;;;;12.80;2.50;;;16.40;99.90;;;;;;5120834;27;20076;-50
2022/10/26 04:45:11;;;;;;;10.65;2.67;;;16.40;99.90;;;;;;5134792;27;20030;-49
2022/10/26 04:47:36;;;;;;;8.43;2.47;;;16.30;99.90;;;;;;5115971;27;20485;-51
2022/10/26 04:50:02;;;;;;;13.52;2.80;;;16.30;99.90;;;;;;5114877;28;20067;-54
2022/10/26 04:52:28;;;;;;;13.38;2.58;;;16.30;99.90;;;;;;5114834;28;20023;-55
2022/10/26 04:54:54;;;;;;;12.05;2.53;;;16.30;99.90;;;;;;5121274;27;20391;-55
2022/10/26 04:57:19;;;;;;;14.57;2.80;;;16.20;99.90;;;;;;5120573;27;20476;-61
2022/10/26 04:59:45;;;;;;;14.07;2.70;;;16.20;99.90;;;;;;5116739;27;20051;-56
2022/10/26 05:02:10;;;;;;;10.52;2.33;;;16.20;99.90;;;;;;5122840;27;20462;-54
2022/10/26 05:04:36;;;;;;;10.90;2.65;;;16.10;99.90;;;;;;5114033;28;20018;-64
2022/10/26 05:07:01;;;;;;;11.13;2.47;;;16.00;99.90;;;;;;5113276;28;20407;-56
2022/10/26 05:09:27;;;;;;;12.40;3.10;;;16.10;99.90;;;;;;5113639;28;20063;-51
2022/10/26 05:11:53;;;;;;;11.70;2.72;;;16.10;99.90;;;;;;5113566;28;20027;-49
2022/10/26 05:14:18;;;;;;;14.65;2.70;;;16.10;99.90;;;;;;5113760;28;20502;-55
2022/10/26 05:16:44;;;;;;;14.73;2.72;;;16.10;99.90;;;;;;5114417;28;20012;-54
2022/10/26 05:19:10;;;;;;;10.85;2.55;;;16.10;99.90;;;;;;5113068;28;20512;-50
2022/10/26 05:21:35;;;;;;;9.80;2.10;;;16.10;99.90;;;;;;5112077;28;20034;-50
2022/10/26 05:24:01;;;;;;;17.67;2.47;;;16.10;99.90;;;;;;5112175;28;20039;-53
2022/10/26 05:26:27;;;;;;;15.00;2.70;;;16.10;99.90;;;;;;5112000;28;20023;-54
2022/10/26 05:28:52;;;;;;;6.47;2.17;;;16.10;99.90;;;;;;5112273;28;20031;-55
2022/10/26 05:31:19;;;;;;;8.90;2.00;;;16.10;99.90;;;;;;5112182;28;20101;-52
2022/10/26 05:33:49;;;;;;;14.60;2.22;;;16.10;99.90;;;;;;5112666;28;20023;-52
2022/10/26 05:36:16;;;;;;;14.52;2.28;;;16.10;99.90;;;;;;5114264;28;20023;-53
2022/10/26 05:38:41;;;;;;;11.25;2.20;;;16.10;99.90;;;;;;5129359;27;20058;-52
2022/10/26 05:41:07;;;;;;;13.43;2.60;;;16.10;99.90;;;;;;5134752;27;20387;-52
2022/10/26 05:43:33;;;;;;;10.93;2.15;;;16.20;99.90;;;;;;5133569;27;20066;-50
2022/10/26 05:45:58;;;;;;;9.55;2.40;;;16.20;99.90;;;;;;5134349;27;20019;-53
2022/10/26 05:48:24;;;;;;;11.27;2.13;;;16.20;99.90;;;;;;5134450;27;20039;-53
2022/10/26 05:50:50;;;;;;;14.20;2.30;;;16.10;99.90;;;;;;5130108;27;20031;-54
2022/10/26 05:53:16;;;;;;;12.73;2.15;;;16.10;99.90;;;;;;5132274;27;20536;-53
2022/10/26 05:55:42;;;;;;;7.80;1.83;;;16.20;99.90;;;;;;5134145;27;20023;-49
2022/10/26 05:58:13;;;;;;;8.88;2.00;;;16.20;99.90;;;;;;5134203;27;20424;-53
2022/10/26 06:01:15;;;;;;;8.38;1.83;;;16.20;99.90;;;;;;5134065;27;20034;-51
2022/10/26 06:04:02;;;;;;;11.43;2.70;;;16.20;99.90;;;;;;5115271;27;20023;-54
2022/10/26 06:06:37;;;;;;;11.32;2.28;;;16.20;99.90;;;;;;5134084;27;20027;-56
2022/10/26 06:09:03;;;;;;;11.70;2.08;;;16.30;99.90;;;;;;5133768;27;20044;-55
2022/10/26 06:11:29;;;;;;;13.40;2.10;;;16.30;99.90;;;;;;5133674;27;20437;-55
2022/10/26 06:13:59;;;;;;;10.65;1.95;;;16.30;99.90;;;;;;5133823;27;20488;-55
2022/10/26 06:16:24;;;;;;;;;;;16.30;99.90;;;;;;5134362;27;20015;-50
2022/10/26 06:19:29;;;;;;;7.95;2.03;;;16.30;99.90;;;;;;5133854;27;20572;-57
2022/10/26 06:21:54;;;;;;;8.15;1.85;;;16.40;99.90;;;;;;5123751;27;20034;-54
2022/10/26 06:24:41;;;;;;;8.90;2.38;;;16.30;99.90;;;;;;5127589;27;20095;-53
2022/10/26 06:27:31;;;;;;;12.95;2.47;;;16.30;99.90;;;;;;5108307;27;20490;-55
2022/10/26 06:30:11;;;;;;;11.43;1.50;;;16.20;99.90;;;;;;5132982;27;20118;-51
2022/10/26 06:32:43;;;;;;;10.63;2.13;;;16.20;99.90;;;;;;5111598;27;20020;-50
2022/10/26 06:35:20;;;;;;;10.30;2.70;;;16.20;99.90;;;;;;5114862;27;20055;-54
2022/10/26 06:37:47;;;;;;;13.65;2.60;;;16.30;99.90;;;;;;5103566;28;20035;-51
2022/10/26 06:40:15;;;;;;;10.93;2.65;;;16.30;99.90;;;;;;5112145;28;20476;-57
2022/10/26 06:42:41;;;;;;;13.15;2.22;;;16.30;99.90;;;;;;5104713;28;20023;-59
2022/10/26 06:45:15;;;;;;;11.13;2.20;;;16.30;99.90;;;;;;5112646;28;20032;-59
2022/10/26 06:47:47;;;;;;;12.70;1.80;;;16.30;99.90;;;;;;5112595;27;20043;-56
2022/10/26 06:50:33;;;;;;;6.82;1.77;;;16.30;99.90;;;;;;5123314;27;20019;-55
2022/10/26 06:53:19;;;;;;;9.63;1.83;;;16.20;99.90;;;;;;5105705;27;20019;-51
2022/10/26 06:55:47;;;;;;;9.20;1.83;;;16.10;99.90;;;;;;5130278;27;20023;-52
2022/10/26 06:58:24;;;;;;;14.80;2.60;;;16.10;99.90;;;;;;5110929;28;20035;-51
2022/10/26 07:00:53;;;;;;;9.43;2.13;;;16.00;99.90;;;;;;5100465;27;20495;-56
2022/10/26 07:03:19;;;;;;;12.73;2.15;;;16.00;99.90;;;;;;5112140;28;20024;-56
2022/10/26 07:05:45;;;;;;;9.93;2.00;;;16.00;99.90;;;;;;5103958;27;20035;-54
2022/10/26 07:08:11;;;;;;;10.10;2.72;;;16.00;99.90;;;;;;5111740;28;20059;-56
2022/10/26 07:10:38;;;;;;;13.38;1.88;;;16.00;99.90;;;;;;5107840;27;20372;-55
2022/10/26 07:13:08;;;;;;;16.05;1.95;;;16.00;99.90;;;;;;5110903;28;20386;-55
2022/10/26 07:15:35;;;;;;;11.27;1.98;;;16.00;99.90;;;;;;5104257;28;20020;-52
2022/10/26 07:18:04;;;;;;;13.52;2.00;;;16.00;99.90;;;;;;5108572;27;20111;-56
2022/10/26 07:20:31;;;;;;;12.52;2.33;;;16.00;99.90;;;;;;5125346;27;20022;-56
2022/10/26 07:22:57;;;;;;;15.52;3.17;;;16.00;99.90;;;;;;5116670;27;20016;-57
2022/10/26 07:25:24;;;;;;;15.80;2.10;;;16.00;99.90;;;;;;5111767;28;20023;-53
2022/10/26 07:27:50;;;;;;;17.52;2.22;;;16.00;99.90;;;;;;5111365;28;20019;-54
2022/10/26 07:30:17;;;;;;;12.45;2.08;;;16.00;99.90;;;;;;5111612;28;20547;-57
2022/10/26 07:32:43;;;;;;;13.50;1.95;;;16.10;99.90;;;;;;5111651;28;20384;-52
2022/10/26 07:35:09;;;;;;;13.20;2.40;;;16.10;99.90;;;;;;5112723;27;20031;-56
2022/10/26 07:37:34;;;;;;;13.48;2.53;;;16.10;99.90;;;;;;5117730;27;20058;-53
2022/10/26 07:40:00;;;;;;;12.90;1.95;;;16.20;99.90;;;;;;5112352;27;20026;-53
2022/10/26 07:42:26;;;;;;;17.80;2.65;;;16.20;99.90;;;;;;5110550;28;20165;-49
2022/10/26 07:44:52;;;;;;;16.90;2.25;;;16.20;99.90;;;;;;5110140;28;20099;-49
2022/10/26 07:47:17;;;;;;;13.05;2.58;;;16.30;99.90;;;;;;5110046;28;20035;-50
2022/10/26 07:49:43;;;;;;;11.20;2.22;;;16.40;99.90;;;;;;5110948;28;20035;-53
2022/10/26 07:52:09;;;;;;;14.35;2.15;;;16.50;99.90;;;;;;5110023;28;20028;-54
2022/10/26 07:54:35;;;;;;;14.40;2.45;;;16.60;99.90;;;;;;5113892;27;20020;-56
2022/10/26 07:57:01;;;;;;;20.05;2.80;;;16.70;99.90;;;;;;5110412;28;20027;-55
2022/10/26 07:59:27;;;;;;;21.30;3.03;;;16.70;99.90;;;;;;5118626;27;20484;-58
2022/10/26 08:01:53;;;;;;;17.48;2.45;;;16.90;99.90;;;;;;5115953;27;20075;-57
2022/10/26 08:04:19;;;;;;;14.65;2.33;;;17.00;99.90;;;;;;5096640;28;20050;-53
2022/10/26 08:06:45;;;;;;;11.38;2.13;;;17.10;99.90;;;;;;5109859;28;20391;-56
2022/10/26 08:09:11;;;;;;;16.10;2.55;;;17.10;99.90;;;;;;5110533;28;20034;-57
2022/10/26 08:11:37;;;;;;;12.80;2.15;;;17.10;99.90;;;;;;5110485;28;20102;-53
2022/10/26 08:14:03;;;;;;;17.80;2.53;;;17.00;99.90;;;;;;5110469;28;20032;-56
2022/10/26 08:16:30;;;;;;;13.20;2.55;;;17.00;99.90;;;;;;5110338;28;20019;-55
2022/10/26 08:18:55;;;;;;;19.40;2.33;;;17.00;99.90;;;;;;5110074;28;20038;-53
2022/10/26 08:21:21;;;;;;;16.45;2.47;;;17.00;99.90;;;;;;5109204;28;20016;-50
2022/10/26 08:23:47;;;;;;;14.77;2.65;;;17.00;99.90;;;;;;5109572;28;20031;-53
2022/10/26 08:26:12;;;;;;;15.18;2.45;;;17.00;99.90;;;;;;5119188;28;20020;-49
2022/10/26 08:28:39;;;;;;;12.32;2.40;;;17.10;99.90;;;;;;5110803;28;20032;-56
2022/10/26 08:31:05;;;;;;;17.55;2.42;;;17.20;99.90;;;;;;5110964;28;20023;-56
2022/10/26 08:33:31;;;;;;;12.65;2.40;;;17.20;99.90;;;;;;5110837;28;20035;-56
2022/10/26 08:35:58;;;;;;;21.33;2.35;;;17.50;99.90;;;;;;5108604;28;20016;-57
2022/10/26 08:38:24;;;;;;;13.73;2.63;;;18.10;99.90;;;;;;5110527;28;20024;-52
2022/10/26 08:40:50;;;;;;;12.25;2.00;;;18.30;99.90;;;;;;5110449;28;20483;-52
2022/10/26 08:43:30;;;;;;;16.88;2.45;;;18.40;99.90;;;;;;5110666;28;20523;-54
2022/10/26 08:46:16;;;;;;;12.52;2.50;;;19.40;99.90;;;;;;5116711;28;20031;-57
2022/10/26 08:49:23;;;;;;;10.75;1.80;;;19.90;99.90;;;;;;5105565;28;20039;-49
2022/10/26 08:51:51;;;;;;;14.40;2.05;;;19.60;99.90;;;;;;5108934;28;20062;-46
2022/10/26 08:54:40;;;;;;;12.98;2.47;;;19.10;99.90;;;;;;5120541;28;20032;-54
2022/10/26 08:57:23;;;;;;;18.27;2.70;;;18.50;99.90;;;;;;5114964;28;20031;-50
2022/10/26 08:59:58;;;;;;;16.42;2.40;;;18.20;99.90;;;;;;5121832;28;20027;-52
2022/10/26 09:02:24;;;;;;;12.48;2.20;;;18.00;99.90;;;;;;5127540;27;20034;-53
2022/10/26 09:04:51;;;;;;;16.33;2.60;;;18.00;99.90;;;;;;5122892;28;20023;-47
2022/10/26 09:08:02;;;;;;;15.77;3.17;;;17.90;99.90;;;;;;5124378;28;20043;-54
2022/10/26 09:11:14;;;;;;;16.35;2.60;;;17.90;99.90;;;;;;5098891;28;20105;-50
2022/10/26 09:14:18;;;;;;;13.88;2.33;;;17.90;99.90;;;;;;5093646;28;20050;-53
2022/10/26 09:17:08;;;;;;;16.92;2.33;;;17.90;99.90;;;;;;5093737;27;20109;-51
2022/10/26 09:20:04;;;;;;;16.58;2.72;;;17.90;99.90;;;;;;5132018;27;20019;-47
2022/10/26 09:22:54;;;;;;;14.57;1.95;;;17.90;99.90;;;;;;5131028;27;20019;-45
2022/10/26 09:25:23;;;;;;;10.88;2.20;;;17.90;99.90;;;;;;5121207;27;20138;-49
2022/10/26 09:27:59;;;;;;;12.43;2.00;;;18.00;99.90;;;;;;5126971;27;20066;-52
2022/10/26 09:30:24;;;;;;;14.63;2.45;;;17.90;99.90;;;;;;5130415;27;20019;-58
2022/10/26 09:33:02;;;;;;;19.42;2.35;;;18.00;99.90;;;;;;5113552;27;20430;-47
2022/10/26 09:35:59;;;;;;;18.13;2.67;;;17.90;99.90;;;;;;5113990;28;20110;-51
2022/10/26 09:38:43;;;;;;;16.67;2.97;;;17.90;99.90;;;;;;5125349;27;20043;-49
2022/10/26 09:41:20;;;;;;;19.98;2.88;;;17.70;99.90;;;;;;5102073;27;20023;-51
2022/10/26 09:43:58;;;;;;;15.73;2.50;;;17.70;99.90;;;;;;5099711;27;20384;-47
2022/10/26 09:46:47;;;;;;;16.58;2.47;;;17.60;99.90;;;;;;5134615;27;20039;-52
2022/10/26 09:49:16;;;;;;;16.00;2.13;;;17.60;99.90;;;;;;5133101;27;20058;-49
2022/10/26 09:51:45;;;;;;;15.45;2.28;;;17.60;99.90;;;;;;5113813;27;20015;-49
2022/10/26 09:54:15;;;;;;;13.43;2.13;;;17.60;99.90;;;;;;5132341;27;20047;-54
2022/10/26 09:56:46;;;;;;;16.75;2.08;;;17.70;99.90;;;;;;5106053;27;20020;-52
2022/10/26 09:59:14;;;;;;;16.92;2.75;;;18.60;99.90;;;;;;5117759;27;20057;-55
2022/10/26 10:01:40;;;;;;;13.38;2.33;;;19.90;99.90;;;;;;5120476;27;20068;-55
2022/10/26 10:04:21;;;;;;;13.73;2.28;;;21.20;99.90;;;;;;5114925;27;20035;-56
2022/10/26 10:06:51;;;;;;;9.98;2.10;;;22.30;99.90;;;;;;5111866;27;20023;-50
2022/10/26 10:09:22;;;;;;;16.95;2.33;;;22.50;99.90;;;;;;5127332;27;20116;-56
2022/10/26 10:12:02;;;;;;;12.13;2.25;;;22.00;99.90;;;;;;5121676;27;20023;-53
2022/10/26 10:14:31;;;;;;;16.00;2.35;;;21.20;99.90;;;;;;5108538;28;20436;-52
2022/10/26 10:17:00;;;;;;;13.45;2.47;;;20.50;99.90;;;;;;5113116;28;20087;-53
2022/10/26 10:19:32;;;;;;;15.52;2.63;;;19.90;99.90;;;;;;5107327;28;20027;-49
2022/10/26 10:22:00;;;;;;;9.23;2.08;;;19.60;99.90;;;;;;5113326;28;20059;-53
2022/10/26 10:24:34;;;;;;;14.23;2.03;;;19.60;99.90;;;;;;5121750;27;20020;-57
2022/10/26 10:27:04;;;;;;;8.48;1.58;;;19.90;99.90;;;;;;5121728;27;20507;-45
2022/10/26 10:29:32;;;;;;;14.57;1.92;;;19.90;99.90;;;;;;5112284;28;20032;-50
2022/10/26 10:32:00;;;;;;;10.50;2.10;;;19.90;99.90;;;;;;5112844;28;20479;-49
2022/10/26 10:34:28;;;;;;;10.35;1.83;;;19.60;99.90;;;;;;5112941;28;20027;-51
2022/10/26 10:36:54;;;;;;;15.95;2.13;;;19.70;99.90;;;;;;5112818;27;20062;-57
2022/10/26 10:39:40;;;;;;;10.07;1.95;;;19.90;99.90;;;;;;5131021;27;20108;-50
2022/10/26 10:42:19;;;;;;;10.50;1.88;;;20.00;99.90;;;;;;5130535;27;20065;-52
2022/10/26 10:44:46;;;;;;;;;;;20.60;99.90;;;;;;5125860;27;20034;-48
2022/10/26 10:47:38;;;;;;;11.32;1.80;;;21.20;99.90;;;;;;5127107;27;19904;-47
2022/10/26 10:50:10;;;;;;;11.90;1.60;;;21.00;99.90;;;;;;5121703;27;20417;-48
2022/10/26 10:52:36;;;;;;;14.75;1.92;;;20.60;99.90;;;;;;5128290;27;20019;-47
2022/10/26 10:55:14;;;;;;;8.63;1.70;;;20.10;99.90;;;;;;5125734;27;20027;-47
2022/10/26 10:57:51;;;;;;;12.60;2.13;;;19.70;99.90;;;;;;5115160;27;20471;-52
2022/10/26 11:00:19;;;;;;;11.43;1.95;;;19.70;99.90;;;;;;5107625;27;20044;-55
2022/10/26 11:03:13;;;;;;;13.32;2.60;;;20.10;99.90;;;;;;5112128;28;20500;-55
2022/10/26 11:05:46;;;;;;;16.60;2.90;;;20.10;99.90;;;;;;5094006;28;20019;-48
2022/10/26 11:08:35;;;;;;;10.65;2.72;;;19.90;99.90;;;;;;5109822;28;20047;-52
2022/10/26 11:11:09;;;;;;;14.10;3.90;;;19.60;99.90;;;;;;5111664;28;20483;-51
2022/10/26 11:13:45;;;;;;;15.63;3.47;;;19.30;99.90;;;;;;5100137;28;20114;-53
2022/10/26 11:16:22;;;;;;;12.02;2.33;;;19.00;99.90;;;;;;5111971;28;20035;-55
2022/10/26 11:18:55;;;;;;;14.73;2.80;;;18.90;99.90;;;;;;5100959;28;20678;-56
2022/10/26 11:21:29;;;;;;;15.88;4.07;;;18.80;99.90;;;;;;5111263;28;20031;-54
2022/10/26 11:24:11;;;;;;;16.65;3.83;;;18.70;99.90;;;;;;5111790;28;20016;-53
2022/10/26 11:26:52;;;;;;;19.60;3.00;;;18.70;99.90;;;;;;5111394;28;20032;-57
2022/10/26 11:29:34;;;;;;;16.75;3.47;;;18.80;99.90;;;;;;5111130;28;20139;-58
2022/10/26 11:32:07;;;;;;;14.27;2.88;;;18.60;99.90;;;;;;5112057;27;20499;-57
2022/10/26 11:34:48;;;;;;;13.65;3.00;;;18.90;99.90;;;;;;5127381;27;20023;-57
2022/10/26 11:37:44;;;;;;;14.80;2.85;;;19.20;99.90;;;;;;5124742;27;20012;-57
2022/10/26 11:40:39;;;;;;;14.57;4.07;;;19.70;99.90;;;;;;5121311;27;20028;-56
2022/10/26 11:43:04;;;;;;;18.15;5.32;;;20.00;99.90;;;;;;5098013;27;20031;-56
2022/10/26 11:45:43;;;;;;;14.20;3.60;;;19.70;99.90;;;;;;5116518;27;20039;-57
2022/10/26 11:48:19;;;;;;;13.05;3.05;;;19.90;99.90;;;;;;5099787;28;20023;-51
2022/10/26 11:50:49;;;;;;;13.85;3.30;;;20.80;99.90;;;;;;5111283;28;20032;-54
2022/10/26 11:53:17;;;;;;;12.00;1.90;;;20.90;99.90;;;;;;5104046;27;20157;-48
2022/10/26 11:55:54;;;;;;;16.27;2.83;;;20.70;99.90;;;;;;5110994;28;20059;-47
2022/10/26 11:58:27;;;;;;;10.43;2.33;;;20.40;99.90;;;;;;5110875;28;20570;-51
2022/10/26 12:00:59;;;;;;;14.77;3.10;;;20.60;99.90;;;;;;5110976;28;20016;-49
2022/10/26 12:03:32;;;;;;;13.10;2.70;;;21.30;99.90;;;;;;5111402;28;20025;-48
2022/10/26 12:05:58;;;;;;;15.55;2.38;;;21.40;99.90;;;;;;5117416;27;20019;-55
2022/10/26 12:08:35;;;;;;;19.73;2.72;;;21.80;99.90;;;;;;5123817;27;20132;-46
2022/10/26 12:11:04;;;;;;;17.00;2.60;;;22.10;99.90;;;;;;5110857;28;20055;-47
2022/10/26 12:13:52;;;;;;;9.75;2.95;;;22.80;99.90;;;;;;5111207;28;20106;-50
2022/10/26 12:17:15;;;;;;;14.13;2.22;;;22.70;99.90;;;;;;5121104;28;20030;-50
2022/10/26 12:19:57;;;;;;;13.10;2.35;;;22.60;99.90;;;;;;5067964;28;20070;-50
2022/10/26 12:22:31;;;;;;;11.80;2.22;;;22.60;99.90;;;;;;5067694;28;20463;-49
2022/10/26 12:25:14;;;;;;;15.02;3.10;;;22.50;99.90;;;;;;5093647;28;20039;-52
2022/10/26 12:27:40;;;;;;;18.30;4.40;;;21.90;99.90;;;;;;5111066;28;20032;-58
2022/10/26 12:30:18;;;;;;;17.50;3.35;;;21.80;99.90;;;;;;5112323;28;20028;-60
2022/10/26 12:32:43;;;;;;;13.40;3.05;;;21.40;99.90;;;;;;5126128;27;20019;-52
2022/10/26 12:35:29;;;;;;;14.23;3.05;;;21.20;99.90;;;;;;5127646;28;20046;-51
2022/10/26 12:37:55;;;;;;;17.35;3.35;;;21.10;99.90;;;;;;5126031;28;20027;-55
2022/10/26 12:40:31;;;;;;;13.65;3.03;;;20.80;99.90;;;;;;5115468;28;20044;-52
2022/10/26 12:43:17;;;;;;;12.98;2.75;;;20.70;99.90;;;;;;5110775;28;20375;-50
2022/10/26 12:46:25;;;;;;;14.18;2.63;;;20.50;99.90;;;;;;5091203;28;20040;-49
2022/10/26 12:48:52;;;;;;;10.63;1.90;;;20.10;99.90;;;;;;5104648;28;20043;-48
2022/10/26 12:51:21;;;;;;;10.40;1.77;;;19.70;99.90;;;;;;5111371;28;20059;-54
2022/10/26 12:54:01;;;;;;;10.57;2.40;;;19.50;99.90;;;;;;5114589;28;20040;-53
2022/10/26 12:56:49;;;;;;;14.43;2.17;;;19.40;99.90;;;;;;5103730;28;20034;-57
2022/10/26 12:59:26;;;;;;;10.85;2.10;;;19.50;99.90;;;;;;5110527;28;20023;-58
2022/10/26 13:02:26;;;;;;;13.02;2.50;;;19.70;99.90;;;;;;5114361;28;20024;-56
2022/10/26 13:05:11;;;;;;;13.88;2.35;;;19.80;99.90;;;;;;5107344;28;20015;-56